Terminal Aerodrome Forecast
Issued by NWS Shreveport, LA

Home | Current Version | Previous Version | Text Only | Print | Product List | Glossary On
Versions: 1 2 3 4 5 6 7 8 9 10 11 12 13
000
FTUS44 KSHV 161700 RRA
TAFTXK
TAF
KTXK 161743Z 1618/1718 02004KT P6SM FEW050 SCT150 BKN250
     FM162100 VRB04KT P6SM VCTS SCT050CB BKN150 BKN250
     FM170100 VRB03KT P6SM SCT250
      TEMPO 1709/1713 00000KT 3SM BR
     FM171600 14004KT P6SM FEW035 SCT250=

USA.gov is the U.S. government's official web portal to all federal, state and local government web resources and services.